首页
METAR-TAF:

METAR-TAF

机场 :

阿特勞機場

阿特勞, 哈萨克斯坦

纬度: 47-07-19N, 经度: 051-49-17E, 海拔: -22米

当前天气观测

该预报发布于17分钟前的07:30 UTC
风速17节,风向
温度 4°C
湿度 81%
气压 1014 hPa
能見度: 5000
散云层高于1100英尺
阴天层高于3000英尺, 积雨云.
小阵雨

METAR: UATG 030730Z 01009MPS 5000 -SHRA SCT011 OVC030CB 04/01 Q1014 R32/29//60 NOSIG RMK QFE763/1017

时间: 13:47 (07:47 UTC)

预报

该预报发布于2小时和46分钟前的05:01 UTC
预报有效从03日的 06点(UTC)到 04日的 06点(UTC)
风速21节,风向
能見度: 5000
多云层高于1100英尺
阴天层高于3000英尺, 积雨云.
小阵雨, 轻雾
短暂存在
从 03日的 08点(UTC)到 03日的 12点(UTC)
能見度: 2000
多云层高于700英尺
阴天层高于2000英尺, 积雨云.
阵雨, 轻雾
从 03日的 1700点(UTC)
风速14节,风向西转西北
能見度: 3100
多云层高于1100英尺
多云层高于3000英尺, 积雨云.
轻雾

TAF: UATG 030501Z 0306/0406 36011MPS 5000 -SHRA BR BKN011 OVC030CB TX07/0310Z TN02/0404Z TEMPO 0308/0312 2000 SHRA BR BKN007 OVC020CB FM031700 30007MPS 3100 BR BKN011 BKN030CB

超过4000个机场的气象观测和天气预报(METAR&TAF报告)。

可查询的气象台以黄色和红色小点在地图上表示。

将鼠标移到小点上方,可查看气象台名称。

然后点击查看天气观测和预报。

如需切换地图:点击带黑十字的绿色按钮放大地图;点击带横线的绿色按钮缩小地图;或者点击绿色箭头查看邻近地区的地图。


METAR-TAF: